LJLJLDPL

Guest
Details From LJLJ - LJUBLJANA
To LDPL - Pula
Flight Number -
Tags generated
Created
Modified
Stats Distance 83 nm / 154 km
Max Altitude 9,000 ft / 2,743 m
Waypoints 5
Social Downloads 2
Likes 0
Share VATSIM

Download

Looking for another format? Having issues loading an existing format? Contact us
Advertisement - Login to hide

Notes

Basic altitude profile: - Ascent Rate: 2500ft/min - Ascent Speed: 250kts - Cruise Altitude: 35000ft - Cruise Speed: 420kts - Descent Rate: 1500ft/min - Descent Speed: 250kts Options: - Use NATs: yes - Use PACOTS: yes - Use low airways: yes - Use high airways: yes

Route

LJLJ ILB L141 PUL LDPL

ID Type Via Altitude Latitude Longitude Leg Dist Tot Dist Heading (true) Name
O LJLJ APT - 0 ft / 0 m 46.22368˚ 14.45761˚ - 0 nm - LJUBLJANA
ILB VOR - 9,000 ft / 2,743 m 45.56559˚ 14.17086˚ 41 nm 41 nm 197° / 197° BISTRICA VOR-DME
GIRDA FIX L141 (AWY-LO) 8,000 ft / 2,438 m 45.47557˚ 14.13395˚ 5 nm 46 nm 196° / 196° -
PUL VOR L141 (AWY-LO) 7,000 ft / 2,134 m 44.89237˚ 13.91813˚ 36 nm 83 nm 195° / 195° PULA VOR-DME
O LDPL APT - 0 ft / 0 m 44.89353˚ 13.92216˚ 0 nm 83 nm 68° / 68° Pula

Altitude Profile

Advertisement - Login to hide

LJLJ

Details ICAO LJLJ (LJU)
Name LJUBLJANA
Region Slovenia
Timezone Europe/Ljubljana (UTC+1.0)
Stats Elevation 1,273 ft / 388 m (AMSL)
Location 46.223685° 14.457608°
Runways 1
Magnetic Variation 3.663° E

METAR

LJLJ 180300Z VRB01KT 5000 BR OVC003 M03/M03 Q1022 NOSIG

Decode

TAF

TAF LJLJ 180200Z 1803/1903 VRB02KT 0400 FZFG VV001 TEMPO 1803/1903 0800 VV002 PROB30 TEMPO 1812/1817 7000 NSW FEW003 SCT100

Decode

Departure Runways

ID Width Length Bearing (true) Bearing (mag) Surface Threshold Offset Overrun Length
13 148 ft / 45 m 10,811 ft / 3,295 m 126.47° 122.81° Asphalt 0 ft / 0 m 0 ft / 0 m
31 148 ft / 45 m 10,811 ft / 3,295 m 306.49° 302.83° Asphalt 0 ft / 0 m 0 ft / 0 m

LDPL

Details ICAO LDPL (PUY)
Name Pula
Region Croatia
Timezone Europe/Zagreb (UTC+1.0)
Stats Elevation 274 ft / 84 m (AMSL)
Location 44.893531° 13.922156°
Runways 1
Magnetic Variation 3.475° E

METAR

LDPL 180300Z AUTO 03006KT CAVOK M01/M06 Q1022 NOSIG

Decode

TAF

TAF LDPL 172325Z 1800/1900 06008KT CAVOK TX08/1812Z TNM01/1806Z

Decode

Destination Runways

ID Width Length Bearing (true) Bearing (mag) Surface Threshold Offset Overrun Length
09 148 ft / 45 m 9,601 ft / 2,926 m 88.24° 84.77° Asphalt 250 ft / 76 m 0 ft / 0 m
27 148 ft / 45 m 9,601 ft / 2,926 m 268.27° 264.80° Asphalt 250 ft / 76 m 0 ft / 0 m

Approach Navaids

Runway Type Ident Frequency Range Bearing (true) Bearing (mag) Slope Elevation
27 Localiser IPU 111.50 MHz 25 nm / 46 km 268.28° 264.81° - 157 ft / 48 m (AMSL)
27 Glidescope IPU 111.50 MHz 25 nm / 46 km 268.28° 264.81° 3.20° 243 ft / 74 m (AMSL)

Popular Alternatives